createdAt,value
2019-05-22T00:00:17.409Z,3.53
2019-05-22T00:02:46.911Z,3.00
2019-05-22T00:05:19.887Z,2.60
2019-05-22T00:07:49.083Z,2.70
2019-05-22T00:10:19.648Z,3.37
2019-05-22T00:12:49.259Z,3.10
2019-05-22T00:15:18.840Z,3.13
2019-05-22T00:17:49.158Z,2.67
2019-05-22T00:20:19.119Z,2.77
2019-05-22T00:22:47.384Z,3.03
2019-05-22T00:25:23.504Z,3.03
2019-05-22T00:27:53.411Z,2.90
2019-05-22T00:30:23.366Z,2.90
2019-05-22T00:32:51.655Z,2.73
2019-05-22T00:35:21.747Z,2.90
2019-05-22T00:37:50.518Z,2.43
2019-05-22T00:40:20.444Z,2.60
2019-05-22T00:43:03.239Z,3.00
2019-05-22T00:45:22.203Z,2.73
2019-05-22T00:47:52.126Z,2.70
2019-05-22T00:50:22.194Z,2.80
2019-05-22T00:53:01.686Z,3.00
2019-05-22T00:55:47.689Z,2.90
2019-05-22T00:58:17.612Z,2.63
2019-05-22T01:00:50.443Z,3.17
2019-05-22T01:03:21.827Z,2.63
2019-05-22T01:05:50.751Z,2.90
2019-05-22T01:08:20.646Z,3.00
2019-05-22T01:10:50.840Z,2.90
2019-05-22T01:13:20.920Z,2.87
2019-05-22T01:15:51.070Z,2.63
2019-05-22T01:18:20.218Z,3.03
2019-05-22T01:20:50.107Z,2.87
2019-05-22T01:23:20.011Z,2.50
2019-05-22T01:25:48.554Z,2.90
2019-05-22T01:28:17.263Z,2.40
2019-05-22T01:30:49.860Z,2.60
2019-05-22T01:33:22.963Z,2.90
2019-05-22T01:35:54.954Z,3.30
2019-05-22T01:38:23.559Z,3.00
2019-05-22T01:41:05.307Z,2.27
2019-05-22T01:43:34.011Z,3.20
2019-05-22T01:46:06.230Z,2.40
2019-05-22T01:48:36.973Z,2.50
2019-05-22T01:51:06.247Z,3.03
2019-05-22T01:53:37.626Z,3.20
2019-05-22T01:56:08.335Z,2.53
2019-05-22T01:58:37.333Z,2.73
2019-05-22T02:01:07.226Z,2.80
2019-05-22T02:03:36.562Z,2.63
2019-05-22T02:06:06.229Z,2.97
2019-05-22T02:08:41.552Z,2.80
2019-05-22T02:11:12.517Z,3.10
2019-05-22T02:13:44.888Z,2.90
2019-05-22T02:16:14.618Z,2.70
2019-05-22T02:18:42.874Z,2.40
2019-05-22T02:21:11.129Z,2.67
2019-05-22T02:23:40.679Z,3.10
2019-05-22T02:26:10.634Z,2.70
2019-05-22T02:28:40.362Z,2.53
2019-05-22T02:31:08.627Z,3.00
2019-05-22T02:33:38.847Z,2.87
2019-05-22T02:36:07.118Z,2.77
2019-05-22T02:38:35.442Z,3.03
2019-05-22T02:41:04.397Z,2.27
2019-05-22T02:43:32.654Z,3.07
2019-05-22T02:46:01.988Z,3.07
2019-05-22T02:48:31.212Z,2.73
2019-05-22T02:50:59.870Z,2.63
2019-05-22T02:53:28.553Z,2.40
2019-05-22T02:55:57.175Z,2.80
2019-05-22T02:58:27.201Z,3.00
2019-05-22T03:01:01.371Z,2.87
2019-05-22T03:03:31.311Z,2.50
2019-05-22T03:06:00.307Z,2.47
2019-05-22T03:08:34.997Z,3.00
2019-05-22T03:11:03.906Z,2.70
2019-05-22T03:13:55.729Z,2.83
2019-05-22T03:16:24.607Z,3.07
2019-05-22T03:19:08.192Z,2.40
2019-05-22T03:21:23.910Z,2.60
2019-05-22T03:23:53.231Z,2.87
2019-05-22T03:26:21.772Z,3.17
2019-05-22T03:28:50.361Z,2.80
2019-05-22T03:31:19.455Z,2.60
2019-05-22T03:33:48.554Z,2.67
2019-05-22T03:36:18.484Z,2.87
2019-05-22T03:38:46.921Z,2.90
2019-05-22T03:41:15.515Z,2.50
2019-05-22T03:43:44.967Z,2.60
2019-05-22T03:46:28.839Z,2.60
2019-05-22T03:48:57.530Z,2.73
2019-05-22T03:51:26.244Z,2.47
2019-05-22T03:53:54.971Z,2.83
2019-05-22T03:56:24.078Z,2.77
2019-05-22T03:58:52.927Z,2.80
2019-05-22T04:01:22.158Z,2.90
2019-05-22T04:03:51.627Z,3.10
2019-05-22T04:06:21.659Z,2.17
2019-05-22T04:08:51.727Z,2.53
2019-05-22T04:11:20.863Z,2.50
2019-05-22T04:13:49.491Z,2.57
2019-05-22T04:16:19.395Z,2.50
2019-05-22T04:18:48.127Z,2.83
2019-05-22T04:21:16.392Z,2.67
2019-05-22T04:23:44.711Z,2.80
2019-05-22T04:26:13.732Z,3.53
2019-05-22T04:28:50.966Z,4.53
2019-05-22T04:31:20.056Z,4.50
2019-05-22T04:33:48.475Z,5.27
2019-05-22T04:36:16.912Z,4.80
2019-05-22T04:38:45.310Z,4.73
2019-05-22T04:41:13.855Z,5.20
2019-05-22T04:43:42.175Z,4.63
2019-05-22T04:46:11.431Z,5.23
2019-05-22T04:48:39.743Z,4.87
2019-05-22T04:51:22.549Z,5.60
2019-05-22T04:53:51.262Z,5.27
2019-05-22T04:56:19.578Z,5.63
2019-05-22T04:58:48.758Z,5.23
2019-05-22T05:01:18.042Z,5.47
2019-05-22T05:03:47.744Z,5.73
2019-05-22T05:06:17.654Z,5.40
2019-05-22T05:08:46.258Z,6.17
2019-05-22T05:11:14.974Z,5.67
2019-05-22T05:13:43.271Z,5.50
2019-05-22T05:16:11.545Z,5.50
2019-05-22T05:18:39.873Z,5.63
2019-05-22T05:21:08.384Z,6.60
2019-05-22T05:23:36.651Z,5.87
2019-05-22T05:26:04.930Z,5.20
2019-05-22T05:28:33.414Z,5.50
2019-05-22T05:31:01.962Z,5.33
2019-05-22T05:33:30.400Z,5.43
2019-05-22T05:35:58.654Z,5.33
2019-05-22T05:38:34.602Z,6.03
2019-05-22T05:41:02.866Z,5.03
2019-05-22T05:43:31.211Z,5.53
2019-05-22T05:45:59.466Z,6.00
2019-05-22T05:48:29.004Z,5.10
2019-05-22T05:51:07.073Z,5.20
2019-05-22T05:53:55.057Z,5.30
2019-05-22T05:56:23.482Z,5.50
2019-05-22T05:58:51.751Z,5.33
2019-05-22T06:01:23.174Z,5.30
2019-05-22T06:03:51.518Z,5.40
2019-05-22T06:06:25.968Z,5.13
2019-05-22T06:08:54.934Z,5.07
2019-05-22T06:11:44.854Z,4.70
2019-05-22T06:14:20.620Z,5.23
2019-05-22T06:16:53.764Z,5.07
2019-05-22T06:19:23.822Z,5.47
2019-05-22T06:21:52.569Z,5.13
2019-05-22T06:24:38.028Z,5.30
2019-05-22T06:27:09.362Z,5.37
2019-05-22T06:29:47.217Z,4.63
2019-05-22T06:32:28.330Z,5.17
2019-05-22T06:34:59.740Z,5.10
2019-05-22T06:37:31.274Z,4.90
2019-05-22T06:40:00.123Z,4.60
2019-05-22T06:42:28.444Z,5.10
2019-05-22T06:44:57.589Z,4.70
2019-05-22T06:47:26.954Z,4.73
2019-05-22T06:49:56.028Z,4.87
2019-05-22T06:52:24.526Z,4.90
2019-05-22T06:54:53.015Z,5.10
2019-05-22T06:57:22.759Z,4.23
2019-05-22T07:00:11.694Z,4.73
2019-05-22T07:02:21.898Z,4.60
2019-05-22T07:04:50.333Z,4.50
2019-05-22T07:07:19.900Z,5.10
2019-05-22T07:09:48.321Z,5.13
2019-05-22T07:12:18.201Z,4.60
2019-05-22T07:14:55.288Z,4.70
2019-05-22T07:17:24.587Z,4.50
2019-05-22T07:19:53.711Z,4.97
2019-05-22T07:22:23.359Z,4.60
2019-05-22T07:24:51.606Z,5.07
2019-05-22T07:27:25.156Z,4.70
2019-05-22T07:29:54.182Z,4.20
2019-05-22T07:32:23.042Z,4.43
2019-05-22T07:34:51.766Z,4.47
2019-05-22T07:37:20.300Z,4.60
2019-05-22T07:39:48.550Z,4.50
2019-05-22T07:42:16.813Z,4.40
2019-05-22T07:44:45.235Z,4.23
2019-05-22T07:47:13.668Z,4.57
2019-05-22T07:49:42.491Z,4.50
2019-05-22T07:52:10.754Z,4.50
2019-05-22T07:54:39.466Z,3.90
2019-05-22T07:57:09.167Z,4.10
2019-05-22T07:59:37.594Z,4.40
2019-05-22T08:02:07.494Z,4.13
2019-05-22T08:04:35.754Z,4.03
2019-05-22T08:07:05.386Z,4.17
2019-05-22T08:09:34.236Z,3.87
2019-05-22T08:12:02.495Z,4.00
2019-05-22T08:14:30.821Z,4.30
2019-05-22T08:16:59.100Z,4.37
2019-05-22T08:19:27.415Z,4.10
2019-05-22T08:22:06.630Z,4.13
2019-05-22T08:24:26.199Z,4.10
2019-05-22T08:26:55.168Z,4.03
2019-05-22T08:29:23.490Z,4.07
2019-05-22T08:31:51.742Z,4.33
2019-05-22T08:34:20.182Z,4.20
2019-05-22T08:36:49.506Z,4.03
2019-05-22T08:39:17.773Z,4.37
2019-05-22T08:41:46.026Z,4.13
2019-05-22T08:44:16.897Z,4.20
2019-05-22T08:46:44.635Z,4.37
2019-05-22T08:49:12.910Z,4.20
2019-05-22T08:51:41.226Z,4.10
2019-05-22T08:54:09.487Z,4.03
2019-05-22T08:56:38.277Z,4.20
2019-05-22T08:59:19.089Z,4.33
2019-05-22T09:01:38.631Z,3.77
2019-05-22T09:04:07.372Z,3.47
2019-05-22T09:06:35.624Z,4.13
2019-05-22T09:09:04.554Z,4.23
2019-05-22T09:11:32.801Z,3.90
2019-05-22T09:14:01.080Z,3.93
2019-05-22T09:16:29.498Z,3.70
2019-05-22T09:18:58.940Z,3.90
2019-05-22T09:21:27.666Z,3.83
2019-05-22T09:23:55.940Z,4.47
2019-05-22T09:26:25.238Z,3.60
2019-05-22T09:28:53.499Z,3.60
2019-05-22T09:31:21.754Z,3.40
2019-05-22T09:33:50.255Z,3.70
2019-05-22T09:36:18.509Z,4.00
2019-05-22T09:38:46.935Z,4.10
2019-05-22T09:41:15.202Z,3.77
2019-05-22T09:43:43.449Z,3.53
2019-05-22T09:46:11.981Z,3.60
2019-05-22T09:48:40.229Z,4.10
2019-05-22T09:51:08.495Z,3.90
2019-05-22T09:53:38.390Z,3.20
2019-05-22T09:56:07.230Z,3.50
2019-05-22T09:58:35.585Z,3.70
2019-05-22T10:01:05.322Z,3.70
2019-05-22T10:03:34.111Z,3.17
2019-05-22T10:06:02.584Z,3.83
2019-05-22T10:08:31.238Z,3.30
2019-05-22T10:10:59.510Z,3.40
2019-05-22T10:13:29.294Z,3.30
2019-05-22T10:15:57.878Z,3.20
2019-05-22T10:18:26.143Z,3.37
2019-05-22T10:20:54.966Z,3.73
2019-05-22T10:23:23.542Z,3.73
2019-05-22T10:25:51.802Z,3.67
2019-05-22T10:28:20.059Z,3.50
2019-05-22T10:30:48.403Z,3.60
2019-05-22T10:33:16.715Z,3.33
2019-05-22T10:35:44.985Z,3.70
2019-05-22T10:38:13.280Z,3.83
2019-05-22T10:40:41.596Z,3.40
2019-05-22T10:43:09.915Z,3.67
2019-05-22T10:45:38.363Z,3.63
2019-05-22T10:48:06.625Z,3.50
2019-05-22T10:50:35.474Z,3.70
2019-05-22T10:53:03.902Z,3.50
2019-05-22T10:55:33.028Z,3.40
2019-05-22T10:58:01.466Z,3.33
2019-05-22T11:00:30.494Z,3.10
2019-05-22T11:02:58.755Z,3.67
2019-05-22T11:05:27.477Z,4.00
2019-05-22T11:07:56.214Z,3.00
2019-05-22T11:10:24.782Z,3.23
2019-05-22T11:12:53.186Z,3.37
2019-05-22T11:15:22.570Z,3.20
2019-05-22T11:17:52.142Z,3.27
2019-05-22T11:20:20.871Z,3.77
2019-05-22T11:22:49.410Z,3.20
2019-05-22T11:25:18.135Z,3.90
2019-05-22T11:27:46.905Z,3.93
2019-05-22T11:30:16.208Z,3.50
2019-05-22T11:32:45.401Z,3.70
2019-05-22T11:35:14.647Z,3.70
2019-05-22T11:37:43.393Z,3.30
2019-05-22T11:40:11.714Z,3.40
2019-05-22T11:42:40.254Z,3.57
2019-05-22T11:45:10.012Z,3.20
2019-05-22T11:47:39.155Z,3.47
2019-05-22T11:50:09.040Z,3.40
2019-05-22T11:52:37.607Z,3.23
2019-05-22T11:55:08.136Z,3.73
2019-05-22T11:57:38.035Z,2.80
2019-05-22T12:00:10.345Z,2.97
2019-05-22T12:02:38.855Z,2.70
2019-05-22T12:05:07.364Z,3.43
2019-05-22T12:07:36.670Z,3.17
2019-05-22T12:10:05.938Z,3.27
2019-05-22T12:12:35.418Z,2.70
2019-05-22T12:15:07.136Z,3.10
2019-05-22T12:17:38.514Z,3.77
2019-05-22T12:20:10.158Z,3.47
2019-05-22T12:22:38.598Z,3.33
2019-05-22T12:25:08.891Z,3.47
2019-05-22T12:27:37.167Z,3.43
2019-05-22T12:30:08.416Z,3.20
2019-05-22T12:32:38.384Z,3.20
2019-05-22T12:35:06.776Z,3.03
2019-05-22T12:37:35.311Z,3.17
2019-05-22T12:40:05.122Z,3.20
2019-05-22T12:42:33.382Z,3.17
2019-05-22T12:45:01.744Z,2.90
2019-05-22T12:47:30.374Z,3.23
2019-05-22T12:49:58.671Z,2.87
2019-05-22T12:52:26.948Z,3.10
2019-05-22T12:54:55.512Z,3.10
2019-05-22T12:57:23.935Z,2.53
2019-05-22T12:59:52.566Z,2.77
2019-05-22T13:02:20.819Z,2.87
2019-05-22T13:04:49.281Z,2.90
2019-05-22T13:07:17.655Z,2.80
2019-05-22T13:09:45.921Z,3.00
2019-05-22T13:12:14.647Z,2.97
2019-05-22T13:14:43.486Z,3.20
2019-05-22T13:17:12.717Z,3.07
2019-05-22T13:19:41.714Z,2.90
2019-05-22T13:22:13.434Z,2.53
2019-05-22T13:24:42.271Z,3.73
2019-05-22T13:27:11.559Z,3.13
2019-05-22T13:29:40.598Z,2.90
2019-05-22T13:32:08.913Z,3.40
2019-05-22T13:34:37.635Z,3.00
2019-05-22T13:37:06.458Z,3.50
2019-05-22T13:39:34.986Z,3.47
2019-05-22T13:42:03.248Z,3.40
2019-05-22T13:44:31.517Z,3.43
2019-05-22T13:46:59.762Z,3.03
2019-05-22T13:49:29.667Z,2.97
2019-05-22T13:51:57.923Z,3.53
2019-05-22T13:54:26.371Z,3.40
2019-05-22T13:56:55.443Z,3.40
2019-05-22T13:59:23.771Z,3.03
2019-05-22T14:01:52.191Z,2.63
2019-05-22T14:04:20.459Z,3.63
2019-05-22T14:06:48.886Z,3.40
2019-05-22T14:09:21.166Z,3.00
2019-05-22T14:11:49.175Z,3.07
2019-05-22T14:14:17.447Z,3.40
2019-05-22T14:16:49.068Z,2.57
2019-05-22T14:19:16.226Z,3.30
2019-05-22T14:21:51.272Z,3.23
2019-05-22T14:24:14.468Z,3.20
2019-05-22T14:26:42.794Z,3.10
2019-05-22T14:29:11.050Z,2.80
2019-05-22T14:31:39.317Z,2.77
2019-05-22T14:34:08.045Z,3.03
2019-05-22T14:36:36.481Z,2.83
2019-05-22T14:39:06.771Z,2.87
2019-05-22T14:41:35.036Z,2.83
2019-05-22T14:44:03.294Z,3.07
2019-05-22T14:46:31.624Z,3.27
2019-05-22T14:49:00.001Z,3.10
2019-05-22T14:51:28.650Z,3.13
2019-05-22T14:53:57.162Z,3.00
2019-05-22T14:56:25.431Z,2.73
2019-05-22T14:58:54.623Z,3.10
2019-05-22T15:01:23.853Z,2.93
2019-05-22T15:03:52.339Z,2.77
2019-05-22T15:06:20.675Z,2.70
2019-05-22T15:08:49.200Z,2.90
2019-05-22T15:11:17.832Z,2.60
2019-05-22T15:13:46.422Z,2.90
2019-05-22T15:16:14.694Z,2.47
2019-05-22T15:18:42.946Z,2.70
2019-05-22T15:21:12.679Z,2.77
2019-05-22T15:23:40.994Z,2.60
2019-05-22T15:26:09.530Z,2.90
2019-05-22T15:28:37.819Z,2.37
2019-05-22T15:31:06.131Z,2.43
2019-05-22T15:33:34.732Z,2.90
2019-05-22T15:36:06.731Z,2.90
2019-05-22T15:38:36.386Z,2.67
2019-05-22T15:41:05.132Z,2.77
2019-05-22T15:43:33.383Z,2.97
2019-05-22T15:46:02.221Z,2.70
2019-05-22T15:48:31.506Z,2.87
2019-05-22T15:51:01.199Z,2.33
2019-05-22T15:53:30.910Z,2.50
2019-05-22T15:56:02.574Z,2.50
2019-05-22T15:58:31.211Z,2.60
2019-05-22T16:01:00.541Z,2.97
2019-05-22T16:03:28.802Z,2.50
2019-05-22T16:05:58.378Z,2.50
2019-05-22T16:08:27.070Z,2.20
2019-05-22T16:11:00.066Z,2.20
2019-05-22T16:13:26.790Z,3.03
2019-05-22T16:15:55.607Z,2.53
2019-05-22T16:18:27.398Z,2.47
2019-05-22T16:20:56.623Z,2.37
2019-05-22T16:23:25.248Z,2.30
2019-05-22T16:25:53.502Z,2.60
2019-05-22T16:28:22.616Z,2.30
2019-05-22T16:30:51.656Z,2.30
2019-05-22T16:33:21.402Z,2.57
2019-05-22T16:35:49.651Z,2.37
2019-05-22T16:38:18.290Z,2.80
2019-05-22T16:40:46.847Z,2.50
2019-05-22T16:43:15.382Z,2.60
2019-05-22T16:45:43.810Z,2.40
2019-05-22T16:48:27.694Z,2.37
2019-05-22T16:50:42.993Z,2.37
2019-05-22T16:53:11.999Z,2.10
2019-05-22T16:55:40.253Z,2.13
2019-05-22T16:58:08.515Z,2.47
2019-05-22T17:00:37.615Z,2.40
2019-05-22T17:03:06.147Z,2.07
2019-05-22T17:05:34.840Z,2.30
2019-05-22T17:08:03.550Z,2.80
2019-05-22T17:10:31.804Z,2.30
2019-05-22T17:13:00.161Z,2.50
2019-05-22T17:15:28.547Z,2.40
2019-05-22T17:17:56.818Z,2.03
2019-05-22T17:20:26.973Z,2.30
2019-05-22T17:22:55.678Z,2.40
2019-05-22T17:25:24.003Z,2.10
2019-05-22T17:27:52.444Z,2.40
2019-05-22T17:30:21.341Z,2.17
2019-05-22T17:32:49.600Z,2.10
2019-05-22T17:35:18.322Z,2.33
2019-05-22T17:37:46.765Z,2.43
2019-05-22T17:40:17.023Z,2.20
2019-05-22T17:42:45.698Z,2.60
2019-05-22T17:45:15.222Z,1.80
2019-05-22T17:47:43.500Z,2.03
2019-05-22T17:50:26.223Z,2.30
2019-05-22T17:52:44.044Z,2.50
2019-05-22T17:55:13.102Z,2.23
2019-05-22T17:57:41.431Z,2.00
2019-05-22T18:00:20.511Z,2.17
2019-05-22T18:02:48.878Z,2.07
2019-05-22T18:05:17.866Z,2.10
2019-05-22T18:07:46.590Z,2.10
2019-05-22T18:10:15.223Z,2.60
2019-05-22T18:12:43.482Z,2.23
2019-05-22T18:15:11.741Z,2.30
2019-05-22T18:17:40.072Z,2.10
2019-05-22T18:20:10.094Z,2.20
2019-05-22T18:22:38.888Z,2.23
2019-05-22T18:25:07.606Z,2.20
2019-05-22T18:27:36.037Z,2.20
2019-05-22T18:30:05.467Z,2.00
2019-05-22T18:32:35.173Z,2.03
2019-05-22T18:35:04.107Z,2.10
2019-05-22T18:37:32.362Z,2.20
2019-05-22T18:40:00.729Z,2.23
2019-05-22T18:42:29.354Z,2.20
2019-05-22T18:44:57.988Z,2.40
2019-05-22T18:47:26.355Z,2.30
2019-05-22T18:49:54.617Z,2.03
2019-05-22T18:52:38.265Z,1.80
2019-05-22T18:54:52.894Z,2.30
2019-05-22T18:57:21.818Z,1.90
2019-05-22T18:59:50.101Z,2.00
2019-05-22T19:02:18.760Z,2.10
2019-05-22T19:04:47.148Z,1.97
2019-05-22T19:07:15.477Z,2.17
2019-05-22T19:09:43.827Z,1.87
2019-05-22T19:12:12.079Z,2.07
2019-05-22T19:14:40.534Z,2.20
2019-05-22T19:17:09.138Z,1.93
2019-05-22T19:19:37.630Z,2.10
2019-05-22T19:22:05.916Z,2.10
2019-05-22T19:24:34.167Z,2.10
2019-05-22T19:27:02.448Z,1.77
2019-05-22T19:29:30.770Z,2.30
2019-05-22T19:31:59.161Z,2.40
2019-05-22T19:34:27.410Z,2.00
2019-05-22T19:36:55.680Z,2.03
2019-05-22T19:39:23.925Z,2.47
2019-05-22T19:42:02.048Z,1.90
2019-05-22T19:44:22.260Z,1.97
2019-05-22T19:46:50.870Z,2.27
2019-05-22T19:49:19.689Z,2.00
2019-05-22T19:51:49.105Z,1.80
2019-05-22T19:54:18.143Z,2.13
2019-05-22T19:56:46.744Z,2.37
2019-05-22T19:59:14.983Z,1.93
2019-05-22T20:01:43.518Z,2.07
2019-05-22T20:04:11.938Z,2.30
2019-05-22T20:06:40.975Z,2.20
2019-05-22T20:09:09.981Z,2.00
2019-05-22T20:11:38.516Z,1.70
2019-05-22T20:14:06.761Z,2.00
2019-05-22T20:16:35.215Z,1.87
2019-05-22T20:19:04.199Z,2.13
2019-05-22T20:21:32.962Z,2.00
2019-05-22T20:24:02.009Z,2.00
2019-05-22T20:26:30.846Z,2.27
2019-05-22T20:28:59.666Z,2.10
2019-05-22T20:31:27.926Z,2.10
2019-05-22T20:33:56.182Z,2.10
2019-05-22T20:36:24.466Z,2.03
2019-05-22T20:38:52.790Z,2.10
2019-05-22T20:41:21.311Z,2.10
2019-05-22T20:43:50.549Z,2.00
2019-05-22T20:46:21.769Z,1.77
2019-05-22T20:48:50.536Z,1.77
2019-05-22T20:51:20.452Z,1.80
2019-05-22T20:53:54.175Z,2.00
2019-05-22T20:56:20.385Z,1.87
2019-05-22T20:58:49.626Z,2.20
2019-05-22T21:01:18.250Z,1.80
2019-05-22T21:03:46.517Z,1.97
2019-05-22T21:06:16.407Z,2.00
2019-05-22T21:08:46.568Z,1.80
2019-05-22T21:11:17.055Z,1.93
2019-05-22T21:13:45.489Z,2.07
2019-05-22T21:16:14.914Z,2.30
2019-05-22T21:18:44.823Z,1.77
2019-05-22T21:21:13.346Z,1.80
2019-05-22T21:23:41.782Z,1.93
2019-05-22T21:26:10.479Z,2.00
2019-05-22T21:28:39.313Z,2.23
2019-05-22T21:31:08.050Z,2.13
2019-05-22T21:33:37.790Z,1.87
2019-05-22T21:36:06.213Z,2.10
2019-05-22T21:38:34.917Z,1.80
2019-05-22T21:41:03.682Z,2.00
2019-05-22T21:43:31.943Z,1.70
2019-05-22T21:46:00.538Z,1.60
2019-05-22T21:48:29.874Z,1.70
2019-05-22T21:50:58.131Z,1.80
2019-05-22T21:53:26.561Z,1.70
2019-05-22T21:56:04.194Z,1.70
2019-05-22T21:58:25.754Z,1.60
2019-05-22T22:00:58.884Z,1.80
2019-05-22T22:03:32.827Z,1.63
2019-05-22T22:06:01.083Z,1.90
2019-05-22T22:08:29.410Z,1.53
2019-05-22T22:10:57.670Z,1.60
2019-05-22T22:13:26.619Z,1.30
2019-05-22T22:15:54.869Z,1.60
2019-05-22T22:18:24.759Z,1.50
2019-05-22T22:20:53.143Z,2.07
2019-05-22T22:23:21.498Z,1.87
2019-05-22T22:25:50.104Z,1.70
2019-05-22T22:28:19.271Z,2.07
2019-05-22T22:30:51.825Z,1.93
2019-05-22T22:33:27.524Z,1.90
2019-05-22T22:35:56.181Z,1.70
2019-05-22T22:38:26.087Z,1.93
2019-05-22T22:40:55.554Z,2.00
2019-05-22T22:43:26.447Z,1.60
2019-05-22T22:45:57.438Z,1.90
2019-05-22T22:48:33.039Z,2.03
2019-05-22T22:51:03.812Z,2.10
2019-05-22T22:53:32.710Z,1.70
2019-05-22T22:56:01.502Z,2.03
2019-05-22T22:58:29.769Z,1.63
2019-05-22T23:00:58.775Z,1.80
2019-05-22T23:03:27.804Z,1.70
2019-05-22T23:05:57.042Z,1.60
2019-05-22T23:08:30.610Z,1.70
2019-05-22T23:10:58.951Z,1.73
2019-05-22T23:13:28.343Z,1.70
2019-05-22T23:15:57.961Z,1.60
2019-05-22T23:18:42.890Z,1.67
2019-05-22T23:21:11.898Z,2.00
2019-05-22T23:23:40.742Z,1.80
2019-05-22T23:26:09.074Z,1.53
2019-05-22T23:28:40.646Z,2.10
2019-05-22T23:31:09.426Z,2.00
2019-05-22T23:33:37.682Z,1.50
2019-05-22T23:36:07.129Z,1.50
2019-05-22T23:38:36.403Z,1.73
2019-05-22T23:41:05.829Z,1.80
2019-05-22T23:43:34.081Z,1.60
2019-05-22T23:46:02.826Z,1.60
2019-05-22T23:48:32.778Z,1.90
2019-05-22T23:51:01.411Z,1.50
2019-05-22T23:53:29.839Z,2.20
2019-05-22T23:55:58.674Z,1.77
2019-05-22T23:58:27.703Z,1.77
